Whitlash, Montana
Current Conditions -  °F | °C
As of 9:56 PM on Monday 20 Oct 2014 (Local Time) from KCTB Reporting Station
Clear Clear  
Wind Chill: 53°   Ceiling: Unl
Heat Index: 53°   Visibility: 10mi
Dew Point: 29°   Wind: 5mph
Humidity: 40%   Direction: 190°S
Pressure: 29.71"   Gusts: NA
Location:  48.91°N, 111.25°W
Report Text: KCTB 210356Z AUTO 19004KT 10SM CLR 12/M02 A2971 RMK AO2 SLP051 T01171017
Loading
Personal Weather Stations






























Interactive Weather Map
Tropical Storm Tracking
New forecast layout! Learn more

10-Day Weather Forecast

Advertisements
Track Severe Weather on mobile